createdAt,value
2022-10-22T00:00:59.061Z,100265.78
2022-10-22T00:03:27.051Z,100271.19
2022-10-22T00:05:54.989Z,100278.69
2022-10-22T00:08:22.914Z,100286.78
2022-10-22T00:10:50.880Z,100284.91
2022-10-22T00:13:18.837Z,100282.22
2022-10-22T00:15:46.868Z,100277.63
2022-10-22T00:18:16.197Z,100277.63
2022-10-22T00:20:44.519Z,100274.13
2022-10-22T00:23:12.511Z,100263.53
2022-10-22T00:25:40.465Z,100271.63
2022-10-22T00:28:08.434Z,100264.56
2022-10-22T00:30:36.444Z,100261.84
2022-10-22T00:33:04.341Z,100262.91
2022-10-22T00:35:33.783Z,100260.22
2022-10-22T00:38:01.754Z,100258.78
2022-10-22T00:40:29.886Z,100255.00
2022-10-22T00:42:57.815Z,100257.91
2022-10-22T00:45:26.854Z,100265.00
2022-10-22T00:47:57.713Z,100271.41
2022-10-22T00:50:28.462Z,100260.84
2022-10-22T00:52:57.953Z,100270.81
2022-10-22T00:55:26.007Z,100274.56
2022-10-22T00:57:54.255Z,100282.66
2022-10-22T01:00:22.804Z,100282.66
2022-10-22T01:02:50.934Z,100284.53
2022-10-22T01:05:19.055Z,100284.53
2022-10-22T01:07:48.682Z,100285.59
2022-10-22T01:10:36.136Z,100267.50
2022-10-22T01:13:12.296Z,100271.22
2022-10-22T01:15:42.973Z,100262.31
2022-10-22T01:18:11.833Z,100253.19
2022-10-22T01:20:52.294Z,100249.44
2022-10-22T01:23:32.419Z,100255.03
2022-10-22T01:26:05.578Z,100255.03
2022-10-22T01:28:48.303Z,100249.63
2022-10-22T01:31:16.265Z,100246.13
2022-10-22T01:33:44.571Z,100248.81
2022-10-22T01:36:12.664Z,100247.19
2022-10-22T01:38:40.586Z,100241.97
2022-10-22T01:41:08.545Z,100237.66
2022-10-22T01:43:36.626Z,100229.53
2022-10-22T01:46:06.494Z,100229.75
2022-10-22T01:48:38.397Z,100229.75
2022-10-22T01:51:23.441Z,100233.50
2022-10-22T01:53:52.333Z,100226.47
2022-10-22T01:56:31.268Z,100222.91
2022-10-22T01:59:03.719Z,100226.66
2022-10-22T02:01:35.838Z,100229.38
2022-10-22T02:04:06.669Z,100229.38
2022-10-22T02:06:34.660Z,100226.88
2022-10-22T02:09:02.730Z,100227.72
2022-10-22T02:11:30.996Z,100228.53
2022-10-22T02:14:00.535Z,100225.03
2022-10-22T02:16:29.893Z,100219.00
2022-10-22T02:18:59.861Z,100228.53
2022-10-22T02:21:28.196Z,100234.75
2022-10-22T02:23:56.160Z,100245.56
2022-10-22T02:26:26.128Z,100253.44
2022-10-22T02:28:58.806Z,100252.59
2022-10-22T02:31:28.996Z,100252.59
2022-10-22T02:33:58.138Z,100252.84
2022-10-22T02:36:27.500Z,100250.34
2022-10-22T02:38:55.485Z,100253.28
2022-10-22T02:41:23.459Z,100261.38
2022-10-22T02:43:52.700Z,100256.16
2022-10-22T02:46:20.669Z,100262.63
2022-10-22T02:48:48.606Z,100256.38
2022-10-22T02:51:16.778Z,100246.63
2022-10-22T02:53:46.173Z,100252.84
2022-10-22T02:56:14.282Z,100241.25
2022-10-22T02:58:42.267Z,100242.28
2022-10-22T03:01:12.432Z,100241.44
2022-10-22T03:03:43.718Z,100241.44
2022-10-22T03:06:11.719Z,100239.81
2022-10-22T03:08:39.814Z,100243.56
2022-10-22T03:11:09.302Z,100238.97
2022-10-22T03:13:37.253Z,100241.69
2022-10-22T03:16:05.423Z,100246.00
2022-10-22T03:18:33.395Z,100246.84
2022-10-22T03:21:03.353Z,100255.78
2022-10-22T03:23:31.539Z,100247.69
2022-10-22T03:28:33.712Z,100260.94
2022-10-22T03:31:01.858Z,100262.81
2022-10-22T03:33:29.814Z,100260.94
2022-10-22T03:35:57.781Z,100256.59
2022-10-22T03:38:26.110Z,100249.78
2022-10-22T03:40:54.013Z,100253.72
2022-10-22T03:43:21.948Z,100251.03
2022-10-22T03:45:51.322Z,100258.50
2022-10-22T03:48:19.309Z,100254.78
2022-10-22T03:50:47.281Z,100256.88
2022-10-22T03:53:15.207Z,100251.47
2022-10-22T03:55:43.164Z,100251.47
2022-10-22T03:58:11.077Z,100251.47
2022-10-22T04:00:39.070Z,100243.56
2022-10-22T04:03:08.391Z,100241.69
2022-10-22T04:05:36.362Z,100233.59
2022-10-22T04:08:04.528Z,100241.69
2022-10-22T04:10:32.486Z,100236.75
2022-10-22T04:13:00.479Z,100231.97
2022-10-22T04:15:29.100Z,100230.31
2022-10-22T04:17:57.241Z,100238.19
2022-10-22T04:20:26.601Z,100225.50
2022-10-22T04:22:54.591Z,100223.66
2022-10-22T04:25:22.617Z,100222.81
2022-10-22T04:27:50.610Z,100223.66
2022-10-22T04:30:18.609Z,100223.44
2022-10-22T04:32:46.564Z,100224.47
2022-10-22T04:35:14.620Z,100225.31
2022-10-22T04:37:44.092Z,100227.19
2022-10-22T04:40:13.829Z,100230.91
2022-10-22T04:42:41.792Z,100223.25
2022-10-22T04:45:10.882Z,100217.84
2022-10-22T04:47:39.067Z,100219.72
2022-10-22T04:50:08.253Z,100215.38
2022-10-22T04:52:36.192Z,100216.41
2022-10-22T04:55:05.985Z,100223.69
2022-10-22T04:57:33.964Z,100220.97
2022-10-22T05:00:02.004Z,100226.38
2022-10-22T05:02:29.932Z,100210.41
2022-10-22T05:04:57.918Z,100225.75
2022-10-22T05:07:25.940Z,100231.16
2022-10-22T05:09:54.663Z,100218.72
2022-10-22T05:12:24.051Z,100214.38
2022-10-22T05:14:52.067Z,100213.31
2022-10-22T05:17:19.984Z,100217.09
2022-10-22T05:19:47.973Z,100224.94
2022-10-22T05:22:15.955Z,100223.88
2022-10-22T05:24:44.059Z,100222.03
2022-10-22T05:27:12.376Z,100233.66
2022-10-22T05:29:41.700Z,100237.16
2022-10-22T05:32:09.645Z,100234.47
2022-10-22T05:34:37.807Z,100240.69
2022-10-22T05:37:05.852Z,100242.38
2022-10-22T05:39:36.841Z,100247.97
2022-10-22T05:42:05.618Z,100241.50
2022-10-22T05:44:33.814Z,100241.50
2022-10-22T05:47:03.148Z,100247.34
2022-10-22T05:49:31.351Z,100254.84
2022-10-22T05:51:59.258Z,100251.09
2022-10-22T05:54:27.287Z,100246.31
2022-10-22T05:56:55.679Z,100229.09
2022-10-22T05:59:23.652Z,100237.38
2022-10-22T06:01:51.781Z,100239.88
2022-10-22T06:04:21.701Z,100243.38
2022-10-22T06:06:50.656Z,100251.28
2022-10-22T06:09:19.555Z,100261.03
2022-10-22T06:11:47.640Z,100251.03
2022-10-22T06:14:15.933Z,100255.19
2022-10-22T06:16:44.047Z,100260.59
2022-10-22T06:19:12.576Z,100258.72
2022-10-22T06:21:42.053Z,100252.09
2022-10-22T06:24:10.548Z,100256.44
2022-10-22T06:26:38.710Z,100254.34
2022-10-22T06:29:06.708Z,100251.41
2022-10-22T06:31:39.907Z,100248.50
2022-10-22T06:34:11.951Z,100255.56
2022-10-22T06:36:43.226Z,100261.56
2022-10-22T06:39:12.273Z,100266.53
2022-10-22T06:41:40.213Z,100269.22
2022-10-22T06:44:08.210Z,100267.75
2022-10-22T06:46:38.118Z,100271.06
2022-10-22T06:49:10.813Z,100267.09
2022-10-22T06:51:38.718Z,100268.53
2022-10-22T06:54:08.227Z,100281.63
2022-10-22T06:56:36.265Z,100281.19
2022-10-22T06:59:04.322Z,100285.53
2022-10-22T07:01:33.976Z,100286.78
2022-10-22T07:04:02.059Z,100280.34
2022-10-22T07:06:30.118Z,100282.59
2022-10-22T07:08:58.738Z,100279.47
2022-10-22T07:11:29.166Z,100272.59
2022-10-22T07:13:57.250Z,100265.94
2022-10-22T07:16:29.574Z,100272.78
2022-10-22T07:19:00.366Z,100275.22
2022-10-22T07:21:28.337Z,100280.22
2022-10-22T07:23:56.606Z,100284.34
2022-10-22T07:26:25.474Z,100296.81
2022-10-22T07:28:54.917Z,100289.31
2022-10-22T07:31:22.881Z,100292.63
2022-10-22T07:33:50.859Z,100293.47
2022-10-22T07:36:18.930Z,100292.19
2022-10-22T07:38:47.204Z,100291.97
2022-10-22T07:41:15.601Z,100293.41
2022-10-22T07:43:43.663Z,100302.31
2022-10-22T07:46:13.045Z,100292.13
2022-10-22T07:48:41.196Z,100283.00
2022-10-22T07:51:09.286Z,100293.34
2022-10-22T07:53:37.233Z,100297.50
2022-10-22T07:56:08.542Z,100302.47
2022-10-22T07:58:36.560Z,100292.25
2022-10-22T08:01:06.278Z,100282.66
2022-10-22T08:03:35.589Z,100279.94
2022-10-22T08:06:03.827Z,100278.47
2022-10-22T08:08:31.829Z,100265.56
2022-10-22T08:11:01.244Z,100262.63
2022-10-22T08:13:30.539Z,100265.72
2022-10-22T08:15:59.640Z,100258.22
2022-10-22T08:18:27.662Z,100267.75
2022-10-22T08:20:57.046Z,100274.19
2022-10-22T08:23:26.214Z,100252.72
2022-10-22T08:25:56.630Z,100252.25
2022-10-22T08:28:24.556Z,100256.19
2022-10-22T08:30:52.951Z,100249.97
2022-10-22T08:33:20.875Z,100256.41
2022-10-22T08:35:49.753Z,100261.22
2022-10-22T08:38:19.280Z,100261.44
2022-10-22T08:40:49.766Z,100266.03
2022-10-22T08:43:40.499Z,100263.53
2022-10-22T08:46:20.021Z,100257.31
2022-10-22T08:48:49.049Z,100247.31
2022-10-22T08:51:18.308Z,100247.31
2022-10-22T08:54:08.099Z,100238.16
2022-10-22T08:56:36.651Z,100238.53
2022-10-22T08:59:07.163Z,100242.47
2022-10-22T09:01:36.673Z,100234.34
2022-10-22T09:04:07.008Z,100238.03
2022-10-22T09:06:35.248Z,100246.72
2022-10-22T09:09:10.867Z,100242.97
2022-10-22T09:11:39.970Z,100243.59
2022-10-22T09:14:07.963Z,100246.88
2022-10-22T09:16:38.410Z,100249.16
2022-10-22T09:19:16.072Z,100247.84
2022-10-22T09:21:47.917Z,100248.69
2022-10-22T09:24:32.901Z,100247.41
2022-10-22T09:27:01.570Z,100256.97
2022-10-22T09:29:33.165Z,100258.59
2022-10-22T09:32:01.394Z,100263.56
2022-10-22T09:34:29.630Z,100259.66
2022-10-22T09:37:00.923Z,100262.38
2022-10-22T09:39:33.311Z,100262.59
2022-10-22T09:42:01.386Z,100264.47
2022-10-22T09:44:29.410Z,100259.44
2022-10-22T09:46:57.494Z,100251.72
2022-10-22T09:49:25.533Z,100261.69
2022-10-22T09:51:55.796Z,100256.88
2022-10-22T09:54:24.857Z,100261.47
2022-10-22T09:56:59.167Z,100269.56
2022-10-22T09:59:30.694Z,100262.53
2022-10-22T10:02:13.630Z,100256.06
2022-10-22T10:04:52.695Z,100248.16
2022-10-22T10:07:21.541Z,100241.91
2022-10-22T10:09:49.479Z,100246.50
2022-10-22T10:12:25.089Z,100244.63
2022-10-22T10:14:57.165Z,100245.69
2022-10-22T10:17:28.835Z,100241.31
2022-10-22T10:20:03.769Z,100231.56
2022-10-22T10:22:40.289Z,100227.44
2022-10-22T10:25:18.076Z,100230.94
2022-10-22T10:27:49.105Z,100230.34
2022-10-22T10:30:18.115Z,100227.63
2022-10-22T10:33:06.974Z,100226.59
2022-10-22T10:35:40.577Z,100226.59
2022-10-22T10:38:17.260Z,100224.94
2022-10-22T10:40:47.220Z,100227.63
2022-10-22T10:43:17.892Z,100219.53
2022-10-22T10:45:55.493Z,100219.97
2022-10-22T10:48:40.611Z,100212.69
2022-10-22T10:51:14.082Z,100203.31
2022-10-22T10:53:56.033Z,100211.81
2022-10-22T10:56:39.059Z,100211.56
2022-10-22T10:59:20.680Z,100205.13
2022-10-22T11:01:59.602Z,100205.13
2022-10-22T11:04:36.600Z,100204.50
2022-10-22T11:07:11.315Z,100207.44
2022-10-22T11:09:47.419Z,100199.56
2022-10-22T11:12:18.313Z,100207.69
2022-10-22T11:14:54.209Z,100205.78
2022-10-22T11:17:22.214Z,100205.78
2022-10-22T11:19:55.651Z,100204.97
2022-10-22T11:22:27.663Z,100197.91
2022-10-22T11:24:57.532Z,100200.84
2022-10-22T11:27:28.771Z,100197.91
2022-10-22T11:30:00.481Z,100188.34
2022-10-22T11:32:28.972Z,100185.44
2022-10-22T11:34:58.120Z,100187.06
2022-10-22T11:37:27.600Z,100187.94
2022-10-22T11:39:56.288Z,100192.50
2022-10-22T11:42:25.113Z,100181.66
2022-10-22T11:45:04.721Z,100181.66
2022-10-22T11:47:36.528Z,100185.59
2022-10-22T11:50:19.431Z,100175.38
2022-10-22T11:52:56.169Z,100178.69
2022-10-22T11:55:35.329Z,100175.53
2022-10-22T11:58:03.875Z,100159.88
2022-10-22T12:00:40.934Z,100158.00
2022-10-22T12:03:17.659Z,100162.56
2022-10-22T12:05:45.920Z,100156.59
2022-10-22T12:08:26.860Z,100149.28
2022-10-22T12:11:15.980Z,100150.34
2022-10-22T12:14:14.920Z,100146.81
2022-10-22T12:17:00.956Z,100137.88
2022-10-22T12:19:30.591Z,100136.44
2022-10-22T12:22:00.364Z,100134.34
2022-10-22T12:24:31.699Z,100130.00
2022-10-22T12:26:59.993Z,100130.00
2022-10-22T12:29:29.120Z,100133.75
2022-10-22T12:31:58.470Z,100136.44
2022-10-22T12:34:26.540Z,100135.41
2022-10-22T12:36:54.797Z,100134.56
2022-10-22T12:39:24.113Z,100134.34
2022-10-22T12:41:52.865Z,100138.00
2022-10-22T12:44:22.009Z,100135.91
2022-10-22T12:46:54.431Z,100131.53
2022-10-22T12:49:30.483Z,100138.63
2022-10-22T12:51:59.329Z,100136.72
2022-10-22T12:54:29.435Z,100137.53
2022-10-22T12:56:58.831Z,100126.97
2022-10-22T12:59:28.221Z,100130.25
2022-10-22T13:01:57.138Z,100125.69
2022-10-22T13:04:36.067Z,100120.28
2022-10-22T13:07:19.860Z,100121.09
2022-10-22T13:09:59.379Z,100117.31
2022-10-22T13:12:27.652Z,100123.56
2022-10-22T13:14:55.755Z,100119.81
2022-10-22T13:17:40.220Z,100114.41
2022-10-22T13:20:17.756Z,100123.56
2022-10-22T13:22:54.995Z,100127.13
2022-10-22T13:25:25.132Z,100115.22
2022-10-22T13:27:54.796Z,100117.72
2022-10-22T13:30:24.550Z,100123.94
2022-10-22T13:32:53.663Z,100119.72
2022-10-22T13:35:25.408Z,100130.06
2022-10-22T13:37:53.472Z,100132.56
2022-10-22T13:40:21.911Z,100132.56
2022-10-22T13:42:49.889Z,100129.03
2022-10-22T13:45:18.320Z,100126.31
2022-10-22T13:47:47.083Z,100125.50
2022-10-22T13:50:16.549Z,100121.72
2022-10-22T13:52:47.116Z,100118.19
2022-10-22T13:55:20.027Z,100111.97
2022-10-22T13:57:48.317Z,100115.25
2022-10-22T14:00:18.237Z,100114.44
2022-10-22T14:02:46.448Z,100113.41
2022-10-22T14:05:15.020Z,100117.97
2022-10-22T14:07:43.206Z,100106.31
2022-10-22T14:10:17.922Z,100105.28
2022-10-22T14:12:49.442Z,100109.63
2022-10-22T14:15:21.606Z,100109.63
2022-10-22T14:17:51.801Z,100107.75
2022-10-22T14:20:22.390Z,100091.31
2022-10-22T14:22:50.833Z,100095.44
2022-10-22T14:25:22.483Z,100090.03
2022-10-22T14:27:50.535Z,100096.25
2022-10-22T14:30:19.832Z,100093.56
2022-10-22T14:32:48.854Z,100083.31
2022-10-22T14:35:17.822Z,100090.38
2022-10-22T14:37:45.790Z,100088.75
2022-10-22T14:40:15.286Z,100097.91
2022-10-22T14:42:45.485Z,100087.06
2022-10-22T14:45:15.832Z,100094.63
2022-10-22T14:47:43.892Z,100088.34
2022-10-22T14:50:12.163Z,100093.78
2022-10-22T14:52:41.007Z,100093.78
2022-10-22T14:55:10.532Z,100088.59
2022-10-22T14:57:39.543Z,100088.81
2022-10-22T15:00:12.090Z,100084.22
2022-10-22T15:02:40.386Z,100081.53
2022-10-22T15:05:09.378Z,100087.16
2022-10-22T15:07:37.493Z,100085.75
2022-10-22T15:10:07.062Z,100093.25
2022-10-22T15:12:35.041Z,100088.91
2022-10-22T15:15:03.676Z,100082.66
2022-10-22T15:17:32.986Z,100075.59
2022-10-22T15:20:04.459Z,100081.25
2022-10-22T15:22:35.157Z,100083.13
2022-10-22T15:25:04.853Z,100083.13
2022-10-22T15:27:32.807Z,100091.47
2022-10-22T15:32:35.196Z,100088.19
2022-10-22T15:35:03.945Z,100086.53
2022-10-22T15:37:31.928Z,100085.94
2022-10-22T15:40:00.952Z,100077.00
2022-10-22T15:42:28.976Z,100080.75
2022-10-22T15:44:59.431Z,100083.69
2022-10-22T15:47:29.734Z,100088.25
2022-10-22T15:49:59.689Z,100092.25
2022-10-22T15:52:28.449Z,100088.72
2022-10-22T15:54:56.961Z,100087.09
2022-10-22T15:57:24.922Z,100076.72
2022-10-22T15:59:53.461Z,100081.31
2022-10-22T16:02:21.436Z,100091.53
2022-10-22T16:04:49.944Z,100091.53
2022-10-22T16:07:21.204Z,100085.53
2022-10-22T16:09:52.857Z,100087.41
2022-10-22T16:12:20.776Z,100093.03
2022-10-22T16:14:51.864Z,100096.81
2022-10-22T16:17:20.070Z,100100.53
2022-10-22T16:19:49.569Z,100101.59
2022-10-22T16:22:17.580Z,100102.69
2022-10-22T16:24:47.568Z,100099.38
2022-10-22T16:27:15.575Z,100102.28
2022-10-22T16:29:44.642Z,100098.75
2022-10-22T16:32:13.287Z,100104.19
2022-10-22T16:34:42.765Z,100108.97
2022-10-22T16:37:10.864Z,100112.75
2022-10-22T16:39:39.589Z,100111.09
2022-10-22T16:42:08.970Z,100117.34
2022-10-22T16:44:37.504Z,100117.53
2022-10-22T16:47:05.490Z,100116.94
2022-10-22T16:49:34.163Z,100109.91
2022-10-22T16:52:02.782Z,100109.91
2022-10-22T16:54:31.767Z,100106.59
2022-10-22T16:56:59.748Z,100105.78
2022-10-22T16:59:30.699Z,100095.16
2022-10-22T17:01:58.754Z,100108.69
2022-10-22T17:04:26.873Z,100107.88
2022-10-22T17:06:55.589Z,100103.97
2022-10-22T17:09:24.309Z,100109.16
2022-10-22T17:11:52.997Z,100106.69
2022-10-22T17:14:21.479Z,100106.09
2022-10-22T17:16:54.813Z,100100.91
2022-10-22T17:19:22.894Z,100108.19
2022-10-22T17:21:52.171Z,100115.47
2022-10-22T17:24:20.306Z,100121.69
2022-10-22T17:26:49.142Z,100122.75
2022-10-22T17:29:18.121Z,100119.22
2022-10-22T17:31:47.717Z,100124.63
2022-10-22T17:34:18.046Z,100124.03
2022-10-22T17:36:46.823Z,100129.44
2022-10-22T17:39:17.016Z,100127.78
2022-10-22T17:41:46.655Z,100123.44
2022-10-22T17:44:14.634Z,100127.78
2022-10-22T17:46:44.476Z,100131.53
2022-10-22T17:49:16.345Z,100128.00
2022-10-22T17:51:46.376Z,100123.63
2022-10-22T17:54:15.532Z,100124.72
2022-10-22T17:56:44.714Z,100120.38
2022-10-22T17:59:14.562Z,100122.22
2022-10-22T18:01:46.117Z,100128.66
2022-10-22T18:04:16.462Z,100134.31
2022-10-22T18:06:47.458Z,100136.16
2022-10-22T18:09:18.292Z,100132.88
2022-10-22T18:11:47.745Z,100144.72
2022-10-22T18:14:15.654Z,100139.31
2022-10-22T18:16:45.189Z,100134.97
2022-10-22T18:19:13.189Z,100139.78
2022-10-22T18:21:41.854Z,100139.78
2022-10-22T18:24:11.934Z,100138.13
2022-10-22T18:26:41.421Z,100130.22
2022-10-22T18:29:10.298Z,100124.00
2022-10-22T18:31:39.034Z,100133.19
2022-10-22T18:34:07.036Z,100139.59
2022-10-22T18:36:35.769Z,100147.72
2022-10-22T18:39:03.779Z,100153.94
2022-10-22T18:41:33.942Z,100162.28
2022-10-22T18:44:02.561Z,100175.81
2022-10-22T18:46:31.608Z,100178.50
2022-10-22T18:48:59.660Z,100182.22
2022-10-22T18:51:32.797Z,100182.22
2022-10-22T18:54:05.950Z,100172.50
2022-10-22T18:56:51.489Z,100171.66
2022-10-22T18:59:20.239Z,100181.66
2022-10-22T19:01:49.197Z,100179.16
2022-10-22T19:04:17.162Z,100183.75
2022-10-22T19:06:46.150Z,100176.66
2022-10-22T19:09:14.880Z,100182.31
2022-10-22T19:11:45.819Z,100202.03
2022-10-22T19:14:19.302Z,100217.44
2022-10-22T19:16:47.908Z,100226.56
2022-10-22T19:19:17.148Z,100234.69
2022-10-22T19:21:45.858Z,100243.84
2022-10-22T19:24:13.832Z,100253.81
2022-10-22T19:26:42.856Z,100270.25
2022-10-22T19:29:11.699Z,100272.94
2022-10-22T19:31:42.400Z,100270.25
2022-10-22T19:34:10.758Z,100286.69
2022-10-22T19:36:39.544Z,100301.22
2022-10-22T19:39:07.766Z,100309.34
2022-10-22T19:41:36.574Z,100317.44
2022-10-22T19:44:04.666Z,100322.00
2022-10-22T19:46:33.819Z,100319.56
2022-10-22T19:49:03.377Z,100325.78
2022-10-22T19:51:34.162Z,100323.28
2022-10-22T19:54:03.109Z,100335.97
2022-10-22T19:56:31.842Z,100334.91
2022-10-22T19:59:00.918Z,100335.34
2022-10-22T20:01:28.971Z,100345.94
2022-10-22T20:03:57.638Z,100355.06
2022-10-22T20:06:26.924Z,100359.66
2022-10-22T20:08:56.417Z,100369.03
2022-10-22T20:11:25.471Z,100383.34
2022-10-22T20:13:54.093Z,100388.75
2022-10-22T20:16:23.799Z,100385.22
2022-10-22T20:18:52.596Z,100399.56
2022-10-22T20:21:20.656Z,100397.09
2022-10-22T20:23:53.642Z,100422.22
2022-10-22T20:26:23.439Z,100407.06
2022-10-22T20:28:52.160Z,100408.91
2022-10-22T20:31:20.856Z,100417.25
2022-10-22T20:33:49.614Z,100424.53
2022-10-22T20:36:18.870Z,100434.28
2022-10-22T20:38:50.882Z,100451.56
2022-10-22T20:41:21.327Z,100457.97
2022-10-22T20:43:50.620Z,100468.78
2022-10-22T20:46:19.515Z,100477.94
2022-10-22T20:48:48.243Z,100493.31
2022-10-22T20:51:16.860Z,100487.09
2022-10-22T20:53:46.674Z,100492.50
2022-10-22T20:56:14.702Z,100493.31
2022-10-22T20:58:48.924Z,100497.03
2022-10-22T21:01:21.557Z,100490.81
2022-10-22T21:03:50.777Z,100493.53
2022-10-22T21:06:20.974Z,100492.69
2022-10-22T21:08:49.879Z,100494.56
2022-10-22T21:11:17.879Z,100495.59
2022-10-22T21:13:47.959Z,100488.56
2022-10-22T21:16:16.039Z,100487.50
2022-10-22T21:18:44.518Z,100502.88
2022-10-22T21:21:13.058Z,100515.56
2022-10-22T21:23:41.656Z,100521.78
2022-10-22T21:26:09.608Z,100525.31
2022-10-22T21:28:38.388Z,100522.00
2022-10-22T21:31:09.597Z,100522.00
2022-10-22T21:33:38.492Z,100522.00
2022-10-22T21:36:07.273Z,100530.13
2022-10-22T21:38:35.895Z,100533.84
2022-10-22T21:41:05.802Z,100538.63
2022-10-22T21:43:34.048Z,100536.53
2022-10-22T21:46:08.280Z,100531.16
2022-10-22T21:48:36.553Z,100532.41
2022-10-22T21:51:08.326Z,100541.31
2022-10-22T21:53:36.604Z,100544.25
2022-10-22T21:56:04.831Z,100550.47
2022-10-22T21:58:32.846Z,100555.88
2022-10-22T22:01:00.855Z,100554.00
2022-10-22T22:03:31.334Z,100555.69
2022-10-22T22:05:59.886Z,100561.09
2022-10-22T22:08:27.892Z,100565.63
2022-10-22T22:11:01.800Z,100564.59
2022-10-22T22:13:29.853Z,100573.53
2022-10-22T22:16:01.965Z,100576.22
2022-10-22T22:18:32.305Z,100564.59
2022-10-22T22:21:00.746Z,100561.91
2022-10-22T22:23:29.469Z,100572.72
2022-10-22T22:26:00.506Z,100578.09
2022-10-22T22:28:29.000Z,100587.22
2022-10-22T22:30:57.590Z,100603.44
2022-10-22T22:33:26.258Z,100602.63
2022-10-22T22:35:59.643Z,100603.44
2022-10-22T22:38:28.055Z,100607.19
2022-10-22T22:40:56.517Z,100610.94
2022-10-22T22:43:24.848Z,100616.34
2022-10-22T22:46:01.193Z,100601.16
2022-10-22T22:48:29.613Z,100602.22
2022-10-22T22:51:00.105Z,100613.03
2022-10-22T22:53:28.859Z,100614.66
2022-10-22T22:56:10.595Z,100611.34
2022-10-22T22:58:40.437Z,100610.50
2022-10-22T23:01:13.136Z,100611.34
2022-10-22T23:03:41.235Z,100623.81
2022-10-22T23:06:10.578Z,100626.53
2022-10-22T23:08:38.630Z,100619.25
2022-10-22T23:11:07.504Z,100620.06
2022-10-22T23:13:35.573Z,100630.88
2022-10-22T23:16:06.656Z,100630.88
2022-10-22T23:18:35.230Z,100631.91
2022-10-22T23:21:06.275Z,100622.13
2022-10-22T23:23:35.754Z,100624.00
2022-10-22T23:26:03.711Z,100640.44
2022-10-22T23:28:31.796Z,100646.66
2022-10-22T23:30:59.787Z,100652.91
2022-10-22T23:33:28.032Z,100650.41
2022-10-22T23:35:55.944Z,100653.13
2022-10-22T23:38:23.875Z,100654.16
2022-10-22T23:40:57.047Z,100646.88
2022-10-22T23:43:25.128Z,100644.16
2022-10-22T23:45:53.125Z,100646.03
2022-10-22T23:48:21.119Z,100639.81
2022-10-22T23:50:49.184Z,100633.59
2022-10-22T23:53:17.371Z,100625.50
2022-10-22T23:55:45.401Z,100612.19
2022-10-22T23:58:14.732Z,100617.59
